Terminal Aerodrome Forecast
Issued by NWS

Home | Current Version | Previous Version | Graphics & Text | Print | Product List | Glossary On
Versions: 1 2 3 4 5 6 7 8 9 10 11 12 13 14 15 16 17 18 19 20 21 22 23 24
000
FTUS43 KABR 271120
TAFPIR
TAF
KPIR 271120Z 2712/2812 01009KT P6SM -RA BKN006 OVC013
     FM271500 02016KT 6SM SHRA BR OVC006
     FM280200 02016KT 6SM -SHRASN BR OVC008
     FM280600 01012KT 3SM -SHRASN OVC003=

USA.gov is the U.S. government's official web portal to all federal, state and local government web resources and services.